Time;durP1;ratioP1;P1;durP2;ratioP2;P2;SDS_P1;SDS_P2;PMS_P1;PMS_P2;Temp;Humidity;BMP_temperature;BMP_pressure;BME280_temperature;BME280_humidity;BME280_pressure;Samples;Min_cycle;Max_cycle;Signal;HPM_P1;HPM_P2
2022/07/17 00:02:02;;;;;;;4.47;3.47;;;19.20;44.80;;;19.67;39.65;98436.56;5008331;28;20055;-40
2022/07/17 00:04:30;;;;;;;5.47;4.10;;;19.10;44.90;;;19.63;39.65;98441.53;5008705;28;20053;-40
2022/07/17 00:06:58;;;;;;;3.67;2.90;;;19.10;45.10;;;19.60;39.69;98444.66;5008389;28;20222;-40
2022/07/17 00:09:26;;;;;;;3.38;3.08;;;19.10;45.10;;;19.58;39.77;98446.72;5007480;28;20056;-40
2022/07/17 00:11:54;;;;;;;9.32;3.65;;;19.00;45.00;;;19.58;39.75;98448.56;5008738;28;20049;-40
2022/07/17 00:14:23;;;;;;;4.65;3.30;;;19.00;44.90;;;19.53;39.93;98437.53;5008998;28;20041;-40
2022/07/17 00:16:53;;;;;;;3.65;2.92;;;19.00;45.20;;;19.47;39.95;98436.47;5009302;28;20056;-39
2022/07/17 00:19:21;;;;;;;4.80;3.85;;;18.90;45.40;;;19.43;40.16;98436.03;5008028;28;20294;-40
2022/07/17 00:21:49;;;;;;;4.65;4.15;;;18.80;45.80;;;19.36;40.35;98431.63;5007540;28;20046;-40
2022/07/17 00:24:19;;;;;;;6.20;3.28;;;18.80;46.20;;;19.34;40.62;98437.22;5009022;28;20049;-39
2022/07/17 00:26:49;;;;;;;3.65;3.10;;;18.80;46.20;;;19.34;40.51;98429.13;5007983;28;20052;-40
2022/07/17 00:29:19;;;;;;;3.85;3.03;;;18.80;46.10;;;19.27;40.71;98430.97;5008126;28;20053;-40
2022/07/17 00:31:47;;;;;;;4.80;3.13;;;18.70;46.30;;;19.24;40.70;98432.16;5007007;28;20046;-40
2022/07/17 00:34:15;;;;;;;4.55;3.65;;;18.70;46.50;;;19.20;40.74;98439.00;5008950;28;20217;-39
2022/07/17 00:36:43;;;;;;;4.25;3.70;;;18.60;46.50;;;19.18;40.73;98442.94;5006785;28;20046;-40
2022/07/17 00:39:11;;;;;;;3.80;3.40;;;18.60;46.50;;;19.17;40.83;98441.25;5007843;28;20054;-39
2022/07/17 00:41:39;;;;;;;4.55;3.60;;;18.60;46.40;;;19.15;40.70;98437.91;5007456;28;20057;-40
2022/07/17 00:44:09;;;;;;;8.40;4.47;;;18.60;46.20;;;19.13;40.86;98431.88;5006318;28;20252;-39
2022/07/17 00:46:39;;;;;;;4.10;3.50;;;18.60;46.30;;;19.08;40.79;98445.97;5006349;28;20054;-39
2022/07/17 00:49:08;;;;;;;3.53;3.22;;;18.50;46.30;;;19.03;41.03;98448.41;5007078;28;20560;-40
2022/07/17 00:51:36;;;;;;;3.92;3.33;;;18.50;46.60;;;18.98;40.90;98442.75;5008146;28;20358;-39
2022/07/17 00:54:06;;;;;;;3.63;3.33;;;18.50;46.70;;;18.96;41.34;98445.69;5008210;28;20064;-39
2022/07/17 00:56:39;;;;;;;4.93;3.15;;;18.40;46.90;;;18.92;41.23;98446.25;5006813;28;20252;-39
2022/07/17 00:59:09;;;;;;;3.95;3.55;;;18.40;47.10;;;18.87;41.24;98450.38;5006808;28;20057;-39
2022/07/17 01:01:37;;;;;;;3.40;3.10;;;18.30;47.00;;;18.85;41.41;98443.50;5005669;28;20540;-40
2022/07/17 01:04:05;;;;;;;5.13;3.60;;;18.30;47.20;;;18.78;41.69;98446.09;5007598;28;20401;-39
2022/07/17 01:06:33;;;;;;;4.32;3.47;;;18.20;47.50;;;18.76;41.73;98450.84;5006251;28;20352;-39
2022/07/17 01:09:01;;;;;;;3.83;3.42;;;18.20;47.70;;;18.74;41.95;98447.53;5005829;28;20076;-40
2022/07/17 01:11:29;;;;;;;4.20;3.80;;;18.20;47.70;;;18.74;41.75;98449.41;5006960;28;20050;-39
2022/07/17 01:13:58;;;;;;;3.67;3.38;;;18.20;47.50;;;18.72;41.82;98446.88;5006371;28;20061;-40
2022/07/17 01:16:26;;;;;;;15.07;4.55;;;18.20;47.50;;;18.73;41.86;98450.41;5006522;28;20356;-39
2022/07/17 01:18:56;;;;;;;4.90;3.60;;;18.20;47.70;;;18.68;41.86;98445.59;5006843;28;20068;-39
2022/07/17 01:21:24;;;;;;;4.07;3.33;;;18.20;47.90;;;18.65;41.89;98449.53;5006979;28;20056;-39
2022/07/17 01:23:52;;;;;;;4.03;3.40;;;18.10;47.90;;;18.61;42.02;98447.41;5005846;28;20045;-40
2022/07/17 01:26:20;;;;;;;3.72;3.28;;;18.00;48.30;;;18.57;42.22;98449.66;5006263;28;20046;-40
2022/07/17 01:28:48;;;;;;;3.58;3.28;;;18.00;48.30;;;18.54;42.22;98454.63;5007207;28;20050;-40
2022/07/17 01:31:16;;;;;;;4.07;3.67;;;18.00;48.40;;;18.49;42.29;98452.47;5007150;28;20061;-40
2022/07/17 01:33:44;;;;;;;4.88;3.63;;;17.90;48.40;;;18.48;42.60;98453.53;5006426;28;20049;-40
2022/07/17 01:36:11;;;;;;;3.85;3.47;;;17.90;48.70;;;18.41;42.51;98450.75;5007534;28;20076;-40
2022/07/17 01:38:39;;;;;;;6.90;3.65;;;17.90;48.90;;;18.39;42.83;98455.47;5007022;28;20062;-40
2022/07/17 01:41:07;;;;;;;3.33;3.03;;;17.80;49.00;;;18.36;42.95;98447.81;5007100;28;20061;-40
2022/07/17 01:43:35;;;;;;;4.35;3.33;;;17.80;49.10;;;18.33;42.98;98453.56;5006583;28;20356;-39
2022/07/17 01:46:03;;;;;;;4.72;3.42;;;17.80;49.00;;;18.32;42.76;98448.34;5007991;28;20050;-39
2022/07/17 01:48:31;;;;;;;5.65;3.88;;;17.70;48.90;;;18.35;42.61;98445.28;5007046;28;20740;-40
2022/07/17 01:50:59;;;;;;;3.40;3.10;;;17.80;48.70;;;18.33;42.63;98445.47;5006770;28;20244;-40
2022/07/17 01:53:27;;;;;;;4.07;3.60;;;17.80;48.70;;;18.32;42.83;98446.53;5006472;28;20136;-39
2022/07/17 01:55:55;;;;;;;4.65;3.42;;;17.80;48.70;;;18.33;42.76;98442.78;5005895;28;20064;-39
2022/07/17 01:58:23;;;;;;;6.65;3.70;;;17.90;48.80;;;18.34;42.92;98449.84;5006577;28;20058;-40
2022/07/17 02:00:52;;;;;;;5.07;3.08;;;17.90;48.90;;;18.31;42.91;98447.53;5007330;28;20046;-39
2022/07/17 02:03:20;;;;;;;4.50;3.42;;;17.80;48.80;;;18.31;42.91;98436.75;5006092;28;20054;-39
2022/07/17 02:05:48;;;;;;;4.75;3.80;;;17.80;48.80;;;18.32;42.95;98435.75;5008191;28;20053;-39
2022/07/17 02:08:16;;;;;;;4.10;3.70;;;17.90;48.80;;;18.30;43.01;98435.91;5007249;28;20046;-40
2022/07/17 02:10:45;;;;;;;4.18;3.03;;;17.80;48.90;;;18.30;42.72;98441.31;5006269;28;20048;-39
2022/07/17 02:13:12;;;;;;;3.92;3.53;;;17.80;48.60;;;18.32;42.65;98443.81;5005682;28;20244;-40
2022/07/17 02:15:41;;;;;;;3.85;3.05;;;17.90;48.70;;;18.29;42.81;98442.31;5005935;28;20054;-39
2022/07/17 02:18:09;;;;;;;4.25;3.15;;;17.80;48.70;;;18.24;42.95;98441.22;5005633;28;20054;-40
2022/07/17 02:20:37;;;;;;;5.22;3.78;;;17.70;49.00;;;18.20;43.01;98446.16;5005817;28;20341;-39
2022/07/17 02:23:05;;;;;;;3.70;3.20;;;17.60;49.20;;;18.16;43.15;98436.78;5006601;28;20108;-40
2022/07/17 02:25:33;;;;;;;5.75;3.42;;;17.60;49.40;;;18.12;43.23;98435.50;5006339;28;20068;-39
2022/07/17 02:28:00;;;;;;;4.28;3.88;;;17.60;49.50;;;18.08;43.34;98432.34;5005862;28;20050;-40
2022/07/17 02:30:28;;;;;;;4.93;3.83;;;17.50;49.60;;;18.03;43.27;98434.81;5007022;28;20281;-39
2022/07/17 02:32:56;;;;;;;4.93;4.18;;;17.40;49.70;;;18.01;43.60;98436.00;5005881;28;20064;-40
2022/07/17 02:35:24;;;;;;;3.70;3.25;;;17.40;49.90;;;17.96;43.54;98439.25;5006769;28;20060;-40
2022/07/17 02:37:52;;;;;;;4.30;3.42;;;17.40;50.10;;;17.92;43.72;98435.28;5005649;28;20057;-40
2022/07/17 02:40:20;;;;;;;3.83;3.53;;;17.30;50.30;;;17.88;43.99;98424.03;5006736;28;20057;-39
2022/07/17 02:42:47;;;;;;;4.53;3.55;;;17.30;50.40;;;17.84;43.77;98414.69;5006383;28;20062;-39
2022/07/17 02:45:15;;;;;;;5.78;4.03;;;17.20;50.30;;;17.81;44.11;98428.47;5005674;28;20345;-39
2022/07/17 02:47:43;;;;;;;5.78;3.80;;;17.20;50.50;;;17.76;43.95;98417.47;5004935;28;20058;-40
2022/07/17 02:50:12;;;;;;;4.10;3.70;;;17.20;50.50;;;17.72;43.94;98416.16;5006307;28;20618;-40
2022/07/17 02:52:40;;;;;;;4.18;3.35;;;17.10;50.70;;;17.68;44.01;98413.00;5006459;28;20052;-40
2022/07/17 02:55:08;;;;;;;4.97;3.72;;;17.10;50.70;;;17.64;43.99;98417.09;5006144;28;20054;-39
2022/07/17 02:57:37;;;;;;;4.22;3.65;;;17.00;50.80;;;17.61;44.25;98422.03;5007340;28;20058;-39
2022/07/17 03:00:10;;;;;;;4.43;3.65;;;17.00;50.90;;;17.59;44.23;98419.50;5008176;28;20064;-40
2022/07/17 03:02:37;;;;;;;4.40;4.00;;;17.00;51.00;;;17.58;44.34;98419.69;5010179;28;20050;-39
2022/07/17 03:05:06;;;;;;;4.57;3.55;;;17.00;51.00;;;17.54;44.32;98413.84;5010105;28;20058;-39
2022/07/17 03:07:34;;;;;;;4.70;3.22;;;17.00;51.20;;;17.51;44.40;98415.06;5009592;28;20054;-40
2022/07/17 03:10:04;;;;;;;4.15;3.75;;;16.90;51.10;;;17.51;44.62;98416.94;5009145;28;20048;-40
2022/07/17 03:12:32;;;;;;;4.10;3.47;;;16.90;51.40;;;17.49;44.50;98414.41;5008838;28;20360;-39
2022/07/17 03:15:00;;;;;;;3.92;3.50;;;16.90;51.30;;;17.47;44.72;98415.63;5009151;28;20045;-39
2022/07/17 03:17:28;;;;;;;5.07;3.20;;;16.90;51.40;;;17.47;44.59;98415.63;5009850;28;20249;-40
2022/07/17 03:19:55;;;;;;;3.67;3.38;;;16.90;51.50;;;17.42;44.76;98408.09;5009456;28;20260;-40
2022/07/17 03:22:23;;;;;;;5.28;3.55;;;16.90;51.50;;;17.41;44.49;98411.81;5009561;28;20057;-40
2022/07/17 03:24:51;;;;;;;3.97;3.22;;;16.80;51.40;;;17.42;44.68;98408.09;5008101;28;20050;-39
2022/07/17 03:27:19;;;;;;;4.93;3.20;;;16.90;51.40;;;17.41;44.54;98411.81;5009414;28;20060;-39
2022/07/17 03:29:47;;;;;;;4.15;3.42;;;16.90;51.20;;;17.41;44.48;98413.66;5010509;28;20057;-40
2022/07/17 03:32:15;;;;;;;4.68;3.78;;;16.90;51.10;;;17.42;44.71;98426.94;5009381;28;20049;-40
2022/07/17 03:34:44;;;;;;;4.38;3.63;;;16.90;51.00;;;17.43;44.69;98422.41;5009649;28;20255;-39
2022/07/17 03:37:12;;;;;;;6.30;3.78;;;16.90;50.90;;;17.43;44.71;98417.84;5008403;28;20331;-40
2022/07/17 03:39:40;;;;;;;5.47;4.00;;;17.00;50.70;;;17.44;44.32;98419.50;5007942;28;20053;-40
2022/07/17 03:42:08;;;;;;;5.50;3.90;;;17.00;50.40;;;17.47;44.35;98418.31;5008971;28;20046;-39
2022/07/17 03:44:36;;;;;;;5.93;4.65;;;17.10;50.50;;;17.46;44.25;98422.84;5009378;28;20363;-39
2022/07/17 03:47:04;;;;;;;3.97;3.58;;;17.00;50.10;;;17.46;44.22;98420.16;5007014;28;20042;-40
2022/07/17 03:49:31;;;;;;;4.40;4.00;;;17.10;50.20;;;17.47;44.13;98421.03;5024446;28;20049;-40
2022/07/17 03:52:00;;;;;;;4.50;4.10;;;17.10;50.30;;;17.47;44.11;98423.72;5008424;28;20066;-39
2022/07/17 03:54:28;;;;;;;5.28;4.50;;;17.00;50.30;;;17.42;44.41;98423.41;5008443;28;20042;-39
2022/07/17 03:56:57;;;;;;;5.10;3.92;;;16.90;50.40;;;17.40;44.42;98426.28;5009134;28;20057;-40
2022/07/17 03:59:24;;;;;;;5.65;3.88;;;16.90;50.70;;;17.40;44.57;98430.84;5008634;28;20056;-39
2022/07/17 04:01:53;;;;;;;5.25;3.80;;;16.90;50.80;;;17.38;44.54;98432.91;5008164;28;20045;-40
2022/07/17 04:04:21;;;;;;;4.80;4.30;;;16.90;50.80;;;17.38;44.51;98435.59;5008553;28;20050;-40
2022/07/17 04:06:49;;;;;;;4.32;3.92;;;16.90;50.90;;;17.37;44.86;98434.75;5008366;28;20047;-40
2022/07/17 04:09:17;;;;;;;4.43;4.03;;;16.90;51.20;;;17.37;44.78;98433.91;5008406;28;20052;-40
2022/07/17 04:11:44;;;;;;;4.95;4.18;;;16.90;51.20;;;17.36;44.71;98435.75;5007594;28;20371;-39
2022/07/17 04:14:12;;;;;;;4.18;3.78;;;16.90;51.20;;;17.35;44.90;98431.41;5009823;28;20049;-40
2022/07/17 04:16:40;;;;;;;5.15;4.65;;;16.90;51.10;;;17.35;44.96;98439.50;5022338;28;20359;-40
2022/07/17 04:19:08;;;;;;;5.15;4.35;;;16.90;51.10;;;17.34;44.95;98437.81;5008594;28;20068;-39
2022/07/17 04:21:36;;;;;;;5.25;4.63;;;16.90;51.10;;;17.34;44.98;98429.72;5007437;28;20057;-40
2022/07/17 04:24:04;;;;;;;4.78;4.20;;;16.90;51.20;;;17.32;45.10;98437.97;5008173;28;20057;-40
2022/07/17 04:26:32;;;;;;;5.82;5.22;;;16.90;51.50;;;17.30;45.07;98440.03;5008417;28;20049;-39
2022/07/17 04:29:00;;;;;;;5.68;4.50;;;16.90;51.50;;;17.29;45.26;98435.69;5008500;28;20061;-39
2022/07/17 04:31:29;;;;;;;5.50;4.65;;;16.90;51.50;;;17.31;45.04;98446.22;5007825;28;20052;-39
2022/07/17 04:33:58;;;;;;;5.57;5.07;;;16.90;51.40;;;17.30;45.26;98444.59;5006720;28;20065;-39
2022/07/17 04:36:26;;;;;;;6.18;4.72;;;16.90;51.60;;;17.27;45.46;98448.50;5009303;28;20060;-40
2022/07/17 04:38:53;;;;;;;5.07;4.68;;;16.80;51.70;;;17.28;45.59;98439.38;5007817;28;20344;-39
2022/07/17 04:41:21;;;;;;;5.13;4.60;;;16.90;51.90;;;17.29;45.62;98441.06;5007868;28;20295;-39
2022/07/17 04:43:49;;;;;;;6.55;4.65;;;16.90;51.90;;;17.31;45.32;98435.47;5007683;28;20046;-39
2022/07/17 04:46:17;;;;;;;6.18;4.35;;;16.90;51.80;;;17.32;45.71;98443.38;5008805;28;20054;-39
2022/07/17 04:48:45;;;;;;;5.82;4.72;;;17.00;52.00;;;17.34;45.50;98440.50;5006986;28;20048;-40
2022/07/17 04:51:13;;;;;;;5.20;4.80;;;16.90;52.00;;;17.36;45.75;98445.69;5007762;28;20673;-39
2022/07/17 04:53:41;;;;;;;4.78;4.38;;;17.00;52.00;;;17.38;45.91;98438.28;5007648;28;20384;-39
2022/07/17 04:56:09;;;;;;;5.68;4.70;;;17.00;52.20;;;17.39;45.58;98446.16;5007684;28;20352;-39
2022/07/17 04:58:37;;;;;;;5.70;4.55;;;17.00;51.90;;;17.41;45.65;98452.19;5005589;28;20292;-39
2022/07/17 05:01:05;;;;;;;5.13;4.63;;;17.10;52.00;;;17.45;45.79;98452.66;5007341;28;20045;-39
2022/07/17 05:03:33;;;;;;;6.10;4.80;;;17.10;52.10;;;17.49;45.76;98448.59;5007224;28;20061;-39
2022/07/17 05:06:00;;;;;;;8.48;4.22;;;17.20;52.00;;;17.52;45.72;98450.88;5007653;28;20042;-40
2022/07/17 05:08:28;;;;;;;4.70;3.95;;;17.20;52.00;;;17.54;45.76;98456.09;5007169;28;20053;-40
2022/07/17 05:10:56;;;;;;;4.70;4.30;;;17.20;51.80;;;17.54;45.61;98453.41;5006543;28;20041;-39
2022/07/17 05:13:25;;;;;;;6.60;4.20;;;17.20;51.80;;;17.55;45.75;98449.69;5007988;28;20337;-39
2022/07/17 05:15:53;;;;;;;4.75;4.25;;;17.20;51.80;;;17.55;45.72;98453.22;5007781;28;20060;-40
2022/07/17 05:18:21;;;;;;;5.72;4.72;;;17.20;51.80;;;17.58;45.79;98454.69;5007262;28;20080;-40
2022/07/17 05:20:49;;;;;;;5.38;4.85;;;17.30;51.80;;;17.58;45.71;98460.91;5007398;28;20381;-40
2022/07/17 05:23:17;;;;;;;6.80;4.80;;;17.30;51.50;;;17.60;45.67;98447.25;5007443;28;20071;-40
2022/07/17 05:25:44;;;;;;;4.90;4.38;;;17.30;51.50;;;17.62;45.46;98450.59;5006805;28;20042;-40
2022/07/17 05:28:12;;;;;;;5.60;4.75;;;17.30;51.30;;;17.63;45.55;98452.28;5006833;28;20064;-40
2022/07/17 05:30:40;;;;;;;8.25;5.90;;;17.40;51.20;;;17.63;45.75;98455.81;5007352;28;20056;-40
2022/07/17 05:33:08;;;;;;;5.15;4.57;;;17.40;51.40;;;17.65;45.88;98458.31;5005083;28;20386;-40
2022/07/17 05:35:36;;;;;;;4.75;3.83;;;17.30;51.60;;;17.67;45.77;98461.66;5007268;28;20049;-39
2022/07/17 05:38:05;;;;;;;7.05;4.82;;;17.30;51.90;;;17.69;45.82;98452.38;5007024;28;20056;-39
2022/07/17 05:40:33;;;;;;;5.22;4.63;;;17.40;51.70;;;17.71;45.79;98457.56;5006327;28;20584;-40
2022/07/17 05:43:01;;;;;;;7.07;4.85;;;17.40;51.80;;;17.74;45.95;98461.72;5007129;28;20050;-40
2022/07/17 05:45:29;;;;;;;6.93;5.10;;;17.50;51.70;;;17.78;45.82;98465.75;5006092;28;20042;-39
2022/07/17 05:47:56;;;;;;;6.18;5.57;;;17.60;51.70;;;17.82;45.94;98458.97;5007288;28;20049;-39
2022/07/17 05:50:24;;;;;;;8.57;5.50;;;17.60;51.60;;;17.80;46.14;98469.91;5006812;28;20041;-39
2022/07/17 05:52:52;;;;;;;7.35;4.78;;;17.70;51.70;;;17.82;46.08;98467.03;5005401;28;20218;-39
2022/07/17 05:55:20;;;;;;;8.35;6.10;;;17.70;51.50;;;17.86;45.85;98469.19;5006590;28;20222;-39
2022/07/17 05:57:48;;;;;;;7.07;5.20;;;17.70;51.60;;;17.92;46.06;98473.00;5006306;28;20064;-39
2022/07/17 06:00:16;;;;;;;7.72;4.75;;;17.80;51.50;;;17.98;46.17;98483.00;5005721;28;20064;-39
2022/07/17 06:02:45;;;;;;;6.97;4.88;;;17.80;51.90;;;18.00;45.87;98480.13;5006135;28;20054;-39
2022/07/17 06:05:13;;;;;;;8.32;4.82;;;17.80;52.40;;;18.02;45.91;98484.31;5006533;28;20042;-39
2022/07/17 06:07:47;;;;;;;5.90;5.15;;;17.80;51.60;;;18.06;46.04;98480.19;5005037;28;20185;-39
2022/07/17 06:10:15;;;;;;;6.25;4.40;;;17.90;51.70;;;18.12;45.92;98481.31;5006304;28;20041;-39
2022/07/17 06:12:43;;;;;;;5.35;4.85;;;17.90;51.60;;;18.17;46.02;98478.06;5006701;28;20358;-38
2022/07/17 06:15:11;;;;;;;6.80;4.88;;;18.00;51.50;;;18.22;45.92;98483.69;5006561;28;20046;-39
2022/07/17 06:17:39;;;;;;;5.63;4.70;;;18.00;51.50;;;18.27;45.88;98489.38;5006946;28;20052;-39
2022/07/17 06:20:12;;;;;;;5.38;4.85;;;18.10;52.20;;;18.31;45.89;98482.56;5005954;28;20276;-39
2022/07/17 06:22:41;;;;;;;5.53;4.47;;;18.20;51.50;;;18.34;45.90;98478.66;5007440;28;20050;-39
2022/07/17 06:25:10;;;;;;;5.80;4.38;;;18.20;51.40;;;18.36;45.56;98490.94;5004650;28;20240;-39
2022/07/17 06:27:42;;;;;;;5.80;4.40;;;18.20;51.10;;;18.38;45.68;98482.63;5004948;28;20057;-39
2022/07/17 06:30:12;;;;;;;8.27;5.25;;;18.20;52.10;;;18.42;45.87;98475.84;5005238;28;20052;-39
2022/07/17 06:32:41;;;;;;;4.63;4.22;;;18.30;51.20;;;18.49;45.56;98484.81;5006299;28;20045;-39
2022/07/17 06:35:11;;;;;;;5.07;4.30;;;18.40;50.80;;;18.52;45.36;98487.16;5007314;28;20042;-39
2022/07/17 06:37:39;;;;;;;4.75;4.25;;;18.40;50.50;;;18.57;45.32;98490.13;5010012;28;20058;-39
2022/07/17 06:40:07;;;;;;;6.07;4.20;;;18.50;50.70;;;18.61;45.31;98486.00;5009961;28;20561;-39
2022/07/17 06:42:35;;;;;;;4.93;3.72;;;18.50;50.40;;;18.67;45.05;98487.09;5009228;28;20049;-39
2022/07/17 06:45:04;;;;;;;4.57;3.95;;;18.60;50.00;;;18.73;44.93;98491.72;5010815;28;20042;-39
2022/07/17 06:47:32;;;;;;;4.95;3.70;;;18.70;49.70;;;18.78;44.74;98499.22;5007659;28;20050;-39
2022/07/17 06:50:00;;;;;;;5.05;4.05;;;18.70;49.60;;;18.81;44.55;98493.50;5012245;28;20049;-39
2022/07/17 06:52:28;;;;;;;4.88;3.65;;;18.80;49.40;;;18.86;44.45;98494.59;5007669;28;20053;-39
2022/07/17 06:54:57;;;;;;;4.47;4.00;;;18.80;49.10;;;18.91;43.85;98493.97;5008035;28;20194;-39
2022/07/17 06:57:26;;;;;;;5.10;3.70;;;18.90;48.90;;;18.97;44.18;98500.47;5009235;28;20064;-38
2022/07/17 06:59:53;;;;;;;3.65;3.35;;;18.90;48.70;;;19.03;44.08;98497.81;5008411;28;20054;-39
2022/07/17 07:02:21;;;;;;;5.40;3.60;;;19.00;48.40;;;19.08;43.87;98497.25;5008961;28;20057;-39
2022/07/17 07:04:49;;;;;;;5.47;4.07;;;19.10;48.20;;;19.15;43.88;98498.13;5007403;28;20056;-39
2022/07/17 07:07:17;;;;;;;5.03;3.42;;;19.20;48.30;;;19.21;43.77;98499.19;5007607;28;20050;-39
2022/07/17 07:09:45;;;;;;;5.03;3.90;;;19.30;48.20;;;19.27;43.87;98503.84;5008334;28;20042;-39
2022/07/17 07:12:13;;;;;;;5.78;3.38;;;19.30;48.30;;;19.33;43.62;98503.06;5008334;28;20064;-39
2022/07/17 07:14:41;;;;;;;4.65;3.70;;;19.40;48.10;;;19.38;43.76;98502.44;5007871;28;20049;-39
2022/07/17 07:17:09;;;;;;;4.00;3.53;;;19.40;47.90;;;19.35;43.66;98511.78;5008530;28;20268;-39
2022/07/17 07:21:04;;;;;;;5.57;4.60;;;19.30;48.30;;;19.39;43.66;98515.75;5024073;28;20068;-39
2022/07/17 07:23:32;;;;;;;;;;;19.50;48.10;;;19.44;43.18;98521.41;5006942;28;20053;-39
2022/07/17 07:26:00;;;;;;;5.00;3.95;;;19.50;47.30;;;19.55;43.38;98521.91;5008040;28;19936;-39
2022/07/17 07:28:28;;;;;;;4.13;3.40;;;19.60;47.90;;;19.60;43.58;98514.00;5008946;28;20054;-39
2022/07/17 07:30:56;;;;;;;5.85;3.63;;;19.60;47.80;;;19.64;43.49;98516.13;5007763;28;20053;-39
2022/07/17 07:33:23;;;;;;;6.97;4.20;;;19.70;47.90;;;19.65;43.26;98509.69;5008321;28;20045;-39
2022/07/17 07:35:52;;;;;;;5.07;3.80;;;19.80;47.50;;;19.69;42.85;98510.13;5007832;28;20046;-39
2022/07/17 07:38:20;;;;;;;4.28;3.50;;;19.80;47.10;;;19.77;42.99;98503.75;5008525;28;20052;-39
2022/07/17 07:40:48;;;;;;;6.28;3.75;;;19.80;47.00;;;19.83;42.79;98505.66;5008953;28;20060;-39
2022/07/17 07:43:16;;;;;;;4.65;2.92;;;19.90;46.90;;;19.86;42.73;98505.28;5006985;28;20060;-40
2022/07/17 07:45:45;;;;;;;3.80;3.10;;;20.00;46.60;;;19.93;42.58;98508.84;4990144;28;20050;-39
2022/07/17 07:48:13;;;;;;;4.47;3.30;;;20.00;46.50;;;19.93;42.58;98511.56;5006966;28;20302;-39
2022/07/17 07:50:41;;;;;;;3.33;3.03;;;20.00;46.50;;;19.93;42.19;98513.41;5008733;28;20048;-39
2022/07/17 07:53:09;;;;;;;3.47;2.92;;;20.00;46.30;;;19.98;42.51;98511.78;5005968;28;20069;-39
2022/07/17 07:55:37;;;;;;;4.93;3.38;;;20.10;46.60;;;20.00;42.16;98511.56;5008292;28;20060;-39
2022/07/17 07:58:10;;;;;;;5.03;3.53;;;20.10;46.10;;;20.06;42.13;98511.63;5006157;28;20458;-39
2022/07/17 08:00:43;;;;;;;3.50;2.40;;;20.20;45.90;;;20.12;41.84;98515.38;5028520;28;20048;-39
2022/07/17 08:03:11;;;;;;;6.00;2.80;;;20.20;45.60;;;20.20;41.97;98506.25;5035733;28;20051;-39
2022/07/17 08:05:39;;;;;;;3.95;2.90;;;20.30;45.60;;;20.28;41.52;98516.91;5037402;28;20044;-39
2022/07/17 08:08:07;;;;;;;3.30;3.00;;;20.40;45.20;;;20.31;40.83;98516.47;5035028;28;20049;-39
2022/07/17 08:10:35;;;;;;;5.15;2.97;;;20.50;44.30;;;20.36;41.11;98513.19;5038019;28;20040;-39
2022/07/17 08:13:03;;;;;;;2.97;2.67;;;20.50;44.30;;;20.43;40.76;98523.00;5033764;28;20075;-39
2022/07/17 08:15:31;;;;;;;3.88;3.10;;;20.60;44.20;;;20.50;40.50;98523.00;5029885;28;20041;-39
2022/07/17 08:17:59;;;;;;;3.30;2.85;;;20.70;44.00;;;20.54;40.48;98516.13;5037478;28;20053;-39
2022/07/17 08:20:27;;;;;;;5.10;3.65;;;20.70;43.90;;;20.59;40.70;98511.00;5033347;28;20259;-40
2022/07/17 08:22:55;;;;;;;3.08;2.78;;;20.80;43.80;;;20.58;40.12;98514.69;5024974;28;20047;-40
2022/07/17 08:25:34;;;;;;;3.38;2.40;;;20.70;43.50;;;20.63;40.03;98514.13;5026291;28;20053;-39
2022/07/17 08:28:06;;;;;;;2.95;2.70;;;20.80;43.20;;;20.67;39.32;98512.69;5026738;28;20045;-40
2022/07/17 08:30:34;;;;;;;8.00;2.58;;;20.80;42.20;;;20.71;39.61;98511.22;5026410;28;20336;-39
2022/07/17 08:33:05;;;;;;;4.07;3.05;;;20.80;42.40;;;20.73;39.28;98511.03;5026747;28;20051;-39
2022/07/17 08:35:35;;;;;;;3.78;2.35;;;20.90;42.60;;;20.81;39.06;98514.34;5009626;28;20255;-39
2022/07/17 08:38:04;;;;;;;3.63;2.50;;;21.00;42.10;;;20.84;39.32;98508.53;5027255;28;20059;-39
2022/07/17 08:40:35;;;;;;;3.25;2.85;;;21.00;42.20;;;20.89;39.15;98509.78;5025970;28;20065;-40
2022/07/17 08:43:06;;;;;;;3.55;2.65;;;21.00;41.80;;;20.95;39.10;98515.19;5028647;28;20045;-40
2022/07/17 08:45:35;;;;;;;4.10;3.00;;;21.10;42.00;;;21.00;38.55;98512.72;5027092;28;20065;-40
2022/07/17 08:48:09;;;;;;;3.05;2.28;;;21.10;41.60;;;21.06;38.43;98508.34;5026506;28;20045;-39
2022/07/17 08:50:37;;;;;;;3.40;3.10;;;21.20;41.00;;;21.15;38.24;98508.97;5009604;28;20053;-40
2022/07/17 08:53:06;;;;;;;3.33;2.50;;;21.30;41.10;;;21.22;37.95;98515.22;5025788;28;20060;-39
2022/07/17 08:55:35;;;;;;;4.95;2.47;;;21.40;40.60;;;21.23;37.85;98515.00;5025972;28;20295;-40
2022/07/17 08:58:04;;;;;;;2.83;2.30;;;21.40;40.60;;;21.29;37.71;98520.66;5027313;28;20061;-40
2022/07/17 09:00:32;;;;;;;3.53;2.83;;;21.50;40.60;;;21.30;37.90;98509.59;5027273;28;20056;-40
2022/07/17 09:03:05;;;;;;;3.70;2.30;;;21.50;39.60;;;21.33;37.33;98506.47;5026669;28;20057;-40
2022/07/17 09:05:41;;;;;;;4.57;2.60;;;21.60;40.50;;;21.46;37.06;98519.22;5024410;28;20172;-40
2022/07/17 09:08:22;;;;;;;3.40;2.28;;;21.60;38.90;;;21.52;36.76;98520.22;5035419;28;20248;-40
2022/07/17 09:10:53;;;;;;;3.72;2.83;;;21.70;38.90;;;21.59;36.88;98521.06;5036760;28;20060;-40
2022/07/17 09:13:28;;;;;;;2.95;2.05;;;21.70;39.40;;;21.67;37.10;98525.41;5037137;28;20350;-40
2022/07/17 09:16:07;;;;;;;2.33;1.98;;;21.80;39.20;;;21.72;36.80;98526.44;5036164;28;20049;-40
2022/07/17 09:18:57;;;;;;;3.58;2.72;;;21.90;39.30;;;21.78;37.08;98522.88;5018574;28;20068;-40
2022/07/17 09:21:28;;;;;;;6.28;2.60;;;22.00;38.70;;;21.85;36.75;98531.03;5014955;28;20046;-40
2022/07/17 09:24:05;;;;;;;2.80;2.60;;;22.00;39.10;;;21.92;35.63;98528.28;5012728;28;20072;-40
2022/07/17 09:26:37;;;;;;;3.40;2.63;;;22.10;38.30;;;21.96;36.18;98522.19;5037655;28;20045;-40
2022/07/17 09:29:05;;;;;;;2.92;2.67;;;22.20;38.30;;;22.00;35.47;98514.47;5041659;28;20075;-40
2022/07/17 09:31:33;;;;;;;3.95;3.08;;;22.30;36.70;;;22.07;35.80;98514.47;5021462;28;20176;-40
2022/07/17 09:34:01;;;;;;;6.32;2.60;;;22.30;37.60;;;22.14;35.51;98507.97;5034251;28;20247;-40
2022/07/17 09:36:29;;;;;;;3.33;2.53;;;22.40;37.60;;;22.20;35.44;98503.59;5047171;28;20048;-39
2022/07/17 09:38:58;;;;;;;2.10;1.90;;;22.50;37.90;;;22.28;35.09;98511.50;5046798;28;20052;-40
2022/07/17 09:41:31;;;;;;;3.55;2.85;;;22.50;37.30;;;22.31;34.95;98508.34;5041878;28;20314;-40
2022/07/17 09:44:00;;;;;;;;;;;22.60;36.90;;;22.32;35.16;98496.44;5026800;28;20060;-39
2022/07/17 09:46:36;;;;;;;3.05;2.40;;;22.50;36.60;;;22.44;35.16;98496.59;5027384;28;19932;-39
2022/07/17 09:49:09;;;;;;;3.45;2.40;;;22.60;37.10;;;22.49;34.40;98510.34;5027244;28;20064;-39
2022/07/17 09:51:39;;;;;;;2.80;2.50;;;22.70;36.50;;;22.56;34.12;98511.13;5026881;28;20060;-40
2022/07/17 09:54:10;;;;;;;14.15;9.20;;;22.80;36.00;;;22.61;33.96;98514.03;5026487;28;20063;-40
2022/07/17 09:56:39;;;;;;;12.88;6.88;;;22.90;36.00;;;22.63;33.53;98504.84;5026388;28;20057;-39
2022/07/17 09:59:11;;;;;;;26.70;21.45;;;22.90;35.70;;;22.67;33.26;98515.03;5024506;28;20045;-40
2022/07/17 10:01:41;;;;;;;8.88;6.25;;;22.90;35.50;;;22.74;32.85;98510.41;5030437;28;20042;-40
2022/07/17 10:04:14;;;;;;;7.57;4.85;;;22.90;34.80;;;22.78;31.82;98511.63;5026996;28;20214;-40
2022/07/17 10:06:43;;;;;;;4.05;2.90;;;23.00;32.70;;;22.81;31.73;98503.03;5024902;28;20061;-40
2022/07/17 10:09:11;;;;;;;3.28;1.90;;;23.10;33.10;;;22.88;31.21;98500.28;5030541;28;20060;-39
2022/07/17 10:11:41;;;;;;;3.40;2.20;;;23.20;32.30;;;22.93;31.53;98502.34;5038976;28;20056;-40
2022/07/17 10:14:16;;;;;;;3.13;2.30;;;23.20;32.40;;;23.04;31.29;98506.28;5036527;28;20271;-39
2022/07/17 10:16:45;;;;;;;2.90;2.55;;;23.30;32.80;;;23.09;31.10;98501.84;5038973;28;20056;-40
2022/07/17 10:19:23;;;;;;;2.20;2.00;;;23.30;32.70;;;23.17;29.99;98498.84;5038625;28;20057;-39
2022/07/17 10:21:58;;;;;;;3.03;2.15;;;23.50;31.10;;;23.25;30.46;98491.47;5042174;28;20049;-40
2022/07/17 10:24:29;;;;;;;4.07;2.38;;;23.50;32.20;;;23.32;31.63;98489.50;5038071;28;20049;-39
2022/07/17 10:26:58;;;;;;;3.95;2.40;;;23.60;32.90;;;23.29;30.60;98479.09;5035507;28;20271;-40
2022/07/17 10:29:39;;;;;;;2.13;1.90;;;23.50;31.50;;;23.31;31.58;98490.59;5036766;28;20041;-40